• Join FlightAware (Why Join?)
  • Login
  • US Flag 
08:06AM EDT


 

Airport Tracker/Info


-or-


 

Live Flight TrackerFlight Track Log ✈ HAL306 ✈ 09-May-2013 ✈ PHNL - PHOG / OGG

Flight Track Log - Related Links

Times and Time Zones

All times are in EDT time to prevent confusion due to time zone crossing. See the HAL306 flight status page for this flight to view local times or setup timezone preferences in your user account.

Time Position Orientation Groundspeed Altitude Reporting Facility
EDT Latitude Longitude Course Direction KTS MPH feet Rate Location/Type
01:56PM 21.3167 -157.8833 126° Southeast 200 230 1,000  Level Honolulu Center
01:57PM 21.2667 -157.8500 148° Southeast 240 276 2,600 1,740 Climbing Honolulu Center
01:58PM 21.2167 -157.8000 137° Southeast 270 311 4,500 2,100 Climbing Honolulu Center
01:59PM 21.1771 -157.6927 113° Southeast  Level FlightAware Approximate
01:59PM 21.1833 -157.7333 118° Southeast 280 322 6,800  Level Honolulu Center
02:00PM 21.1451 -157.6343 126° Southeast  Level FlightAware Approximate
02:00PM 21.1500 -157.6500 113° Southeast 290 334 9,200  Level Honolulu Center
02:01PM 21.1082 -157.5789 126° Southeast  Level FlightAware Approximate
02:01PM 21.1000 -157.5833 129° Southeast 300 345 10,700  Level Honolulu Center
02:02PM 21.0667 -157.4833 110° East 350 403 11,700 1,140 Climbing Honolulu Center
02:03PM 21.0167 -157.3833 118° Southeast 360 414 13,000 600 Climbing Honolulu Center
02:04PM 20.9667 -157.3000 123° Southeast 360 414 13,000  Level Honolulu Center
02:05PM 20.9333 -157.2000 110° East 360 414 13,000  Level Honolulu Center
02:06PM 20.8833 -157.1000 118° Southeast 360 414 13,000 -120 Level Honolulu Center
02:07PM 20.8333 -157.0000 118° Southeast 360 414 12,800 -840 Descending Honolulu Center
02:08PM 20.8000 -156.9167 113° Southeast 330 380 11,400 -1,440 Descending Honolulu Center
02:09PM 20.7500 -156.8333 123° Southeast 300 345 10,000 -1,620 Descending Honolulu Center
02:10PM 20.7333 -156.7500 102° East 290 334 8,200 -1,860 Descending Honolulu Center
02:11PM 20.7333 -156.6667 90° East 290 334 6,300 -1,740 Descending Honolulu Center
02:12PM 20.7333 -156.5833 90° East 280 322 4,800 -1,380 Descending Honolulu Center
02:13PM 20.7667 -156.5167 62° Northeast 260 299 3,600 -1,200 Descending Honolulu Center